Aviation Digital Data Service (ADDS)

Output produced by METARs form (2351 UTC 05 May 2016)
found at http://www.aviationweather.gov/adds/metars/
 
KCXY 052256Z AUTO 34005KT 10SM BKN038 OVC075 15/07 A2965 RMK AO2 SLP041 T01500067
KCXY 052156Z 34005KT 10SM OVC038 15/07 A2965 RMK AO2 SLP041 T01500072
KCXY 052056Z 02006KT 10SM OVC035 14/06 A2965 RMK AO2 SLP042 T01440061 55006
KCXY 051956Z 05006KT 10SM OVC034 15/06 A2965 RMK AO2 SLP042 T01500061
KCXY 051856Z VRB04KT 10SM OVC034 15/07 A2966 RMK AO2 SLP045 T01500067
KCXY 051849Z 02005KT 10SM OVC032 15/07 A2966 RMK AO2 T01500067
KCXY 051756Z 03005KT 10SM OVC028 14/06 A2967 RMK AO2 SLP048 T01440061 10144 20106 57010
KCXY 051741Z 07008KT 10SM OVC028 14/07 A2967 RMK AO2 T01390067
KCXY 051720Z 05007KT 10SM OVC030 14/06 A2967 RMK AO2 T01390061
KCXY 051656Z 03007KT 10SM OVC029 14/07 A2968 RMK AO2 SLP052 T01390067
KCXY 051556Z 04006KT 10SM OVC027 13/07 A2969 RMK AO2 SLP055 T01330067
KCXY 051456Z VRB04KT 10SM BKN024 OVC031 13/07 A2970 RMK AO2 SLP058 T01330067 50002
KCXY 051356Z 07009KT 10SM OVC024 12/07 A2970 RMK AO2 SLP059 T01220067
KCXY 051256Z 07006KT 10SM BKN016 BKN024 OVC029 11/07 A2971 RMK AO2 SLP061 T01110067
KCXY 051211Z 05005KT 10SM SCT014 OVC019 11/07 A2969 RMK AO2 T01060072
KCXY 051156Z 06007KT 10SM OVC014 11/07 A2970 RMK AO2 SLP057 60000 70002 T01060072 10106 20100 55002
KCXY 051135Z VRB05KT 9SM BKN011 OVC016 11/08 A2969 RMK AO2 T01060078
KCXY 051056Z 07006KT 5SM BR BKN008 BKN032 OVC050 10/08 A2968 RMK AO2 SLP051 T01000078
KCXY 051035Z AUTO 07007KT 5SM BR FEW008 SCT019 OVC035 10/08 A2967 RMK AO2 T01000078
KCXY 051020Z AUTO 06007KT 4SM BR SCT008 BKN020 OVC035 10/08 A2968 RMK AO2 T01000078
KCXY 050956Z AUTO 03007KT 8SM BKN009 OVC019 10/08 A2968 RMK AO2 RAE0857 CIG 007V011 SLP053 P0000 T01000078
KCXY 050943Z AUTO 06007KT 7SM BKN009 OVC016 10/08 A2969 RMK AO2 RAE0857 CIG 007V013 P0000 T01000078
KCXY 050935Z AUTO 06007KT 6SM BR SCT009 OVC016 10/08 A2970 RMK AO2 RAE0857 P0000 T01000078
KCXY 050911Z AUTO 07007KT 5SM BR FEW007 OVC014 10/08 A2970 RMK AO2 RAE0857 P0000 T01000083
KCXY 050856Z AUTO 06006KT 4SM -RA BKN007 OVC012 11/08 A2970 RMK AO2 RAB22 CIG 005V010 SLP058 P0000 60000 T01060078 56006
KCXY 050819Z AUTO 09004KT 5SM BR BKN007 BKN011 OVC016 10/08 A2971 RMK AO2 T01000083
KCXY 050805Z AUTO 10004KT 6SM BR SCT007 OVC016 10/08 A2970 RMK AO2 T01000083
KCXY 050756Z AUTO 10004KT 6SM BR BKN008 BKN011 OVC022 10/08 A2971 RMK AO2 CIG 006V009 SLP061 T01000083
KCXY 050745Z AUTO 09005KT 6SM BR BKN006 BKN010 OVC018 10/08 A2970 RMK AO2 T01000083
KCXY 050727Z AUTO 09004KT 4SM BR SCT006 BKN014 OVC035 10/08 A2970 RMK AO2 T01000083
KCXY 050718Z AUTO 10005KT 5SM BR FEW006 BKN016 OVC035 10/08 A2970 RMK AO2 T01000078
KCXY 050656Z AUTO 10007KT 6SM BR OVC033 10/08 A2971 RMK AO2 SLP061 T01000078
KCXY 050634Z AUTO 12006KT 6SM BR FEW018 OVC031 10/08 A2972 RMK AO2 T01000078
KCXY 050626Z AUTO 12007KT 5SM BR FEW018 OVC029 10/08 A2972 RMK AO2 T01000078
KCXY 050556Z AUTO 11006KT 6SM BR OVC031 10/08 A2972 RMK AO2 SLP064 60001 T01000078 10122 20100 58002
KCXY 050548Z AUTO 12008KT 6SM BR OVC031 10/08 A2972 RMK AO2 T01000078
KCXY 050524Z AUTO 11010KT 8SM OVC029 11/08 A2972 RMK AO2 T01060078
KCXY 050456Z AUTO 12011KT 10SM OVC032 11/08 A2972 RMK AO2 RAE07 SLP065 P0000 T01060078 401390106
KCXY 050431Z AUTO 11009KT 8SM FEW008 SCT019 OVC033 11/08 A2972 RMK AO2 RAE07 P0000 T01060083
KCXY 050420Z AUTO 11008KT 6SM BR SCT009 BKN019 OVC033 11/09 A2972 RMK AO2 RAE07 P0000 T01060089
KCXY 050406Z AUTO 10008KT 3SM -RA BR OVC007 11/09 A2973 RMK AO2 CIG 005V012 P0000 T01060089
KCXY 050356Z AUTO 10008KT 2 1/2SM -RA BR OVC007 11/09 A2972 RMK AO2 RAE40B51 CIG 005V010 SLP067 P0000 T01060089
KCXY 050340Z AUTO 12006KT 3SM BR OVC007 11/09 A2972 RMK AO2 RAE40 CIG 005V010 P0000 T01060089
KCXY 050325Z AUTO 10008KT 2 1/2SM -RA BR OVC007 11/09 A2972 RMK AO2 CIG 004V011 P0000 T01060089
KCXY 050303Z AUTO 10006KT 3SM -RA BR OVC005 11/09 A2972 RMK AO2 CIG 004V008 P0000 T01110094
KCXY 050256Z AUTO 09006KT 2 1/2SM -RA BR OVC005 11/09 A2972 RMK AO2 SLP065 P0001 60001 T01110094 50005
KCXY 050156Z AUTO 11007KT 2 1/2SM -RA BR OVC008 11/09 A2972 RMK AO2 RAB31 CIG 006V011 SLP067 P0000 T01110094
KCXY 050143Z AUTO 11007KT 3SM -RA BR OVC008 12/09 A2973 RMK AO2 RAB31 CIG 006V012 P0000 T01170094
KCXY 050056Z AUTO 12009KT 5SM HZ BKN011 OVC019 12/09 A2972 RMK AO2 SLP064 T01220089
KCXY 050004Z 09006KT 5SM HZ OVC014 12/09 A2971 RMK AO2 T01220094
KCXY 042356Z 09007KT 5SM HZ OVC015 12/09 A2971 RMK AO2 SLP060 T01220094 10139 20122 53013
KCXY 042256Z 06007KT 10SM OVC016 13/09 A2968 RMK AO2 SLP053 T01330094
KCXY 042156Z 06008KT 10SM OVC016 13/09 A2968 RMK AO2 SLP051 T01330094
KCXY 042056Z 07007KT 10SM BKN015 OVC021 14/09 A2967 RMK AO2 SLP047 T01390094 56013
KCXY 042026Z 07006KT 10SM OVC014 14/09 A2967 RMK AO2 T01390094
KCXY 041956Z 09004KT 10SM OVC015 14/09 A2968 RMK AO2 SLP051 T01390089
KCXY 041856Z 07006KT 10SM OVC016 13/09 A2968 RMK AO2 SLP052 T01330094
KCXY 041756Z 06004KT 10SM BKN012 OVC017 13/09 A2971 RMK AO2 SLP060 60001 T01330094 10133 20117 57014
KCXY 041656Z 10007KT 10SM OVC010 13/09 A2971 RMK AO2 SLP063 T01280094
KCXY 041556Z 10006KT 6SM HZ OVC012 12/09 A2974 RMK AO2 SLP071 T01220094
KCXY 041517Z 10005KT 6SM BR OVC011 12/09 A2975 RMK AO2 T01170094
KCXY 041456Z 10007KT 6SM BR OVC009 12/09 A2975 RMK AO2 SLP074 60001 T01170094 55003
KCXY 041446Z 11007KT 6SM BR OVC009 12/09 A2975 RMK AO2 CIG 007V011 T01170094
KCXY 041356Z 09003KT 10SM OVC010 12/09 A2974 RMK AO2 SLP072 T01170089
KCXY 041328Z 12007KT 10SM BR OVC013 12/09 A2974 RMK AO2 T01170089
KCXY 041312Z 09006KT 10SM BR FEW009 OVC015 12/09 A2974 RMK AO2 T01170094
KCXY 041256Z 11007KT 5SM BR SCT008 OVC013 12/09 A2975 RMK AO2 RAB21E56 SLP074 P0001 T01170094
KCXY 041218Z 08006KT 6SM BR BKN010 OVC015 12/09 A2976 RMK AO2 CIG 007V013 T01220094
KCXY 041211Z 09004KT 6SM BR BKN008 OVC015 12/09 A2976 RMK AO2 T01170094
KCXY 041156Z 13005KT 6SM BR BKN010 BKN015 OVC020 12/09 A2976 RMK AO2 RAB27E38 CIG 008V013 SLP078 P0000 60006 70011 T01220094 10133 20122 53005